createdAt,value
2022-09-26T00:01:15.023Z,83.68
2022-09-26T00:03:49.950Z,83.52
2022-09-26T00:06:17.406Z,82.95
2022-09-26T00:08:45.235Z,83.08
2022-09-26T00:11:14.258Z,84.37
2022-09-26T00:13:42.203Z,83.62
2022-09-26T00:16:10.716Z,84.46
2022-09-26T00:18:37.616Z,84.02
2022-09-26T00:21:12.755Z,83.33
2022-09-26T00:23:40.049Z,83.51
2022-09-26T00:26:06.811Z,83.82
2022-09-26T00:28:33.616Z,84.00
2022-09-26T00:31:09.400Z,84.55
2022-09-26T00:33:36.756Z,85.56
2022-09-26T00:36:05.532Z,85.59
2022-09-26T00:38:32.043Z,87.41
2022-09-26T00:40:58.623Z,87.64
2022-09-26T00:43:31.648Z,87.05
2022-09-26T00:46:22.930Z,85.51
2022-09-26T00:49:13.568Z,85.26
2022-09-26T00:51:42.636Z,84.42
2022-09-26T00:54:11.218Z,83.94
2022-09-26T00:56:38.883Z,84.05
2022-09-26T00:59:09.770Z,83.51
2022-09-26T01:01:36.548Z,84.52
2022-09-26T01:04:06.314Z,84.35
2022-09-26T01:06:32.916Z,83.41
2022-09-26T01:09:01.888Z,84.53
2022-09-26T01:11:28.727Z,84.28
2022-09-26T01:13:56.885Z,84.79
2022-09-26T01:16:23.559Z,83.86
2022-09-26T01:18:50.124Z,83.45
2022-09-26T01:21:44.727Z,82.88
2022-09-26T01:24:33.037Z,83.23
2022-09-26T01:27:57.092Z,82.10
2022-09-26T01:30:25.246Z,83.06
2022-09-26T01:33:28.412Z,82.41
2022-09-26T01:36:05.750Z,82.78
2022-09-26T01:38:55.412Z,83.41
2022-09-26T01:41:58.343Z,82.73
2022-09-26T01:44:54.212Z,83.07
2022-09-26T01:47:28.203Z,84.30
2022-09-26T01:50:04.265Z,85.67
2022-09-26T01:52:44.880Z,85.38
2022-09-26T01:55:14.766Z,85.71
2022-09-26T01:57:46.860Z,86.77
2022-09-26T02:00:13.469Z,85.98
2022-09-26T02:02:48.149Z,85.74
2022-09-26T02:05:28.886Z,86.28
2022-09-26T02:08:20.988Z,87.67
2022-09-26T02:10:57.780Z,87.58
2022-09-26T02:13:31.488Z,88.41
2022-09-26T02:16:04.713Z,88.17
2022-09-26T02:18:42.140Z,88.37
2022-09-26T02:21:19.986Z,87.54
2022-09-26T02:23:52.067Z,86.42
2022-09-26T02:26:19.051Z,85.43
2022-09-26T02:28:45.799Z,85.15
2022-09-26T02:31:14.282Z,84.41
2022-09-26T02:33:40.977Z,84.79
2022-09-26T02:36:08.472Z,83.58
2022-09-26T02:38:35.198Z,83.05
2022-09-26T02:41:04.624Z,82.74
2022-09-26T02:43:44.366Z,82.89
2022-09-26T02:46:35.664Z,83.27
2022-09-26T02:49:21.770Z,84.02
2022-09-26T02:51:59.197Z,83.87
2022-09-26T02:54:34.785Z,83.90
2022-09-26T02:57:08.175Z,84.55
2022-09-26T03:00:01.838Z,84.55
2022-09-26T03:02:37.892Z,84.01
2022-09-26T03:05:11.212Z,84.30
2022-09-26T03:08:11.709Z,84.58
2022-09-26T03:10:38.962Z,84.40
2022-09-26T03:13:13.263Z,83.83
2022-09-26T03:15:42.078Z,84.93
2022-09-26T03:18:11.458Z,85.98
2022-09-26T03:20:37.958Z,85.61
2022-09-26T03:23:04.927Z,84.54
2022-09-26T03:25:31.711Z,84.36
2022-09-26T03:27:58.294Z,83.33
2022-09-26T03:30:24.814Z,83.71
2022-09-26T03:32:51.389Z,83.23
2022-09-26T03:35:17.939Z,82.89
2022-09-26T03:37:44.558Z,82.72
2022-09-26T03:40:12.955Z,82.34
2022-09-26T03:42:39.918Z,82.18
2022-09-26T03:45:09.147Z,81.94
2022-09-26T03:47:35.799Z,82.14
2022-09-26T03:50:08.015Z,83.36
2022-09-26T03:52:34.490Z,85.17
2022-09-26T03:55:01.564Z,84.78
2022-09-26T03:57:28.114Z,84.97
2022-09-26T03:59:54.633Z,85.52
2022-09-26T04:02:21.333Z,85.19
2022-09-26T04:04:48.081Z,85.09
2022-09-26T04:07:14.738Z,85.14
2022-09-26T04:09:41.242Z,85.59
2022-09-26T04:12:07.733Z,84.95
2022-09-26T04:14:35.040Z,85.06
2022-09-26T04:17:01.732Z,85.32
2022-09-26T04:19:28.285Z,85.89
2022-09-26T04:21:54.819Z,86.73
2022-09-26T04:24:21.385Z,87.43
2022-09-26T04:26:48.280Z,87.28
2022-09-26T04:29:15.022Z,88.35
2022-09-26T04:31:41.664Z,88.99
2022-09-26T04:34:09.828Z,89.13
2022-09-26T04:36:36.319Z,90.41
2022-09-26T04:39:03.301Z,91.53
2022-09-26T04:41:30.178Z,91.17
2022-09-26T04:43:58.058Z,90.78
2022-09-26T04:46:30.442Z,89.94
2022-09-26T04:48:59.229Z,89.95
2022-09-26T04:51:27.042Z,89.60
2022-09-26T04:53:53.592Z,88.50
2022-09-26T04:56:22.297Z,88.68
2022-09-26T04:58:50.073Z,88.67
2022-09-26T05:01:19.451Z,89.40
2022-09-26T05:03:46.567Z,90.08
2022-09-26T05:06:15.413Z,90.03
2022-09-26T05:08:42.838Z,90.20
2022-09-26T05:11:09.554Z,89.78
2022-09-26T05:13:36.618Z,89.72
2022-09-26T05:16:03.441Z,89.85
2022-09-26T05:18:30.260Z,89.90
2022-09-26T05:20:57.168Z,89.59
2022-09-26T05:23:25.633Z,89.37
2022-09-26T05:25:52.106Z,88.60
2022-09-26T05:28:18.632Z,88.34
2022-09-26T05:30:45.791Z,87.28
2022-09-26T05:33:12.251Z,87.08
2022-09-26T05:35:42.163Z,86.46
2022-09-26T05:38:08.646Z,85.20
2022-09-26T05:40:35.160Z,85.82
2022-09-26T05:43:02.446Z,85.83
2022-09-26T05:45:29.347Z,85.85
2022-09-26T05:47:55.896Z,85.48
2022-09-26T05:50:22.547Z,86.61
2022-09-26T05:52:49.061Z,88.46
2022-09-26T05:55:15.702Z,89.47
2022-09-26T05:57:57.914Z,89.35
2022-09-26T06:00:25.612Z,90.56
2022-09-26T06:02:56.753Z,90.56
2022-09-26T06:05:26.009Z,91.01
2022-09-26T06:07:52.792Z,90.50
2022-09-26T06:10:20.407Z,91.00
2022-09-26T06:12:50.839Z,91.00
2022-09-26T06:15:17.787Z,90.25
2022-09-26T06:17:44.785Z,90.12
2022-09-26T06:20:11.380Z,88.80
2022-09-26T06:22:41.694Z,88.76
2022-09-26T06:25:13.349Z,89.19
2022-09-26T06:27:39.865Z,90.07
2022-09-26T06:30:07.985Z,88.64
2022-09-26T06:32:34.751Z,88.61
2022-09-26T06:35:01.407Z,89.20
2022-09-26T06:37:27.881Z,86.51
2022-09-26T06:39:59.073Z,85.51
2022-09-26T06:42:26.025Z,86.49
2022-09-26T06:44:52.499Z,86.11
2022-09-26T06:47:19.062Z,86.98
2022-09-26T06:49:45.649Z,87.74
2022-09-26T06:52:12.180Z,88.34
2022-09-26T06:54:38.675Z,88.65
2022-09-26T06:57:05.312Z,87.32
2022-09-26T06:59:32.902Z,86.35
2022-09-26T07:01:59.457Z,84.61
2022-09-26T07:04:26.123Z,84.28
2022-09-26T07:06:52.814Z,83.59
2022-09-26T07:09:19.501Z,81.38
2022-09-26T07:12:12.929Z,80.75
2022-09-26T07:14:37.090Z,82.33
2022-09-26T07:17:03.563Z,83.10
2022-09-26T07:19:30.687Z,83.02
2022-09-26T07:21:57.330Z,81.09
2022-09-26T07:24:23.776Z,81.51
2022-09-26T07:26:50.697Z,80.78
2022-09-26T07:29:17.273Z,79.09
2022-09-26T07:31:43.818Z,78.61
2022-09-26T07:34:12.339Z,78.32
2022-09-26T07:36:41.014Z,77.03
2022-09-26T07:39:07.589Z,75.84
2022-09-26T07:41:34.061Z,76.60
2022-09-26T07:46:47.211Z,77.42
2022-09-26T07:49:13.772Z,79.20
2022-09-26T07:51:40.205Z,79.30
2022-09-26T07:54:06.978Z,80.47
2022-09-26T07:56:33.732Z,81.45
2022-09-26T07:59:02.717Z,80.31
2022-09-26T08:01:29.457Z,78.15
2022-09-26T08:03:56.060Z,78.76
2022-09-26T08:06:22.788Z,78.81
2022-09-26T08:08:53.324Z,79.25
2022-09-26T08:11:20.007Z,79.09
2022-09-26T08:13:47.394Z,77.78
2022-09-26T08:16:14.963Z,76.69
2022-09-26T08:18:41.511Z,75.53
2022-09-26T08:21:08.002Z,74.64
2022-09-26T08:23:34.605Z,76.19
2022-09-26T08:26:05.065Z,75.66
2022-09-26T08:28:31.589Z,75.21
2022-09-26T08:30:58.835Z,74.74
2022-09-26T08:33:25.471Z,76.25
2022-09-26T08:35:51.999Z,75.53
2022-09-26T08:38:18.477Z,75.33
2022-09-26T08:41:00.388Z,72.59
2022-09-26T08:43:45.743Z,73.38
2022-09-26T08:46:20.155Z,71.42
2022-09-26T08:49:04.808Z,71.66
2022-09-26T08:51:39.143Z,71.42
2022-09-26T08:54:14.973Z,70.90
2022-09-26T08:56:46.789Z,70.12
2022-09-26T08:59:19.699Z,71.07
2022-09-26T09:01:47.792Z,69.98
2022-09-26T09:04:19.819Z,70.17
2022-09-26T09:06:46.757Z,71.60
2022-09-26T09:09:16.295Z,71.24
2022-09-26T09:12:04.320Z,70.90
2022-09-26T09:15:23.450Z,68.60
2022-09-26T09:18:02.623Z,68.55
2022-09-26T09:20:57.961Z,68.95
2022-09-26T09:23:42.924Z,68.57
2022-09-26T09:29:33.861Z,67.34
2022-09-26T09:32:04.235Z,66.48
2022-09-26T09:34:40.722Z,67.10
2022-09-26T09:37:19.729Z,64.92
2022-09-26T09:39:48.013Z,66.05
2022-09-26T09:42:31.668Z,66.17
2022-09-26T09:45:04.174Z,65.49
2022-09-26T09:47:31.541Z,65.64
2022-09-26T09:49:59.100Z,64.05
2022-09-26T09:52:37.798Z,61.74
2022-09-26T09:55:29.189Z,63.03
2022-09-26T09:58:29.537Z,63.80
2022-09-26T10:01:13.575Z,62.29
2022-09-26T10:03:50.948Z,60.88
2022-09-26T10:06:45.820Z,61.88
2022-09-26T10:09:38.729Z,61.65
2022-09-26T10:12:16.464Z,60.83
2022-09-26T10:14:50.194Z,60.62
2022-09-26T10:17:18.000Z,60.89
2022-09-26T10:19:44.632Z,61.36
2022-09-26T10:22:17.816Z,62.16
2022-09-26T10:24:46.488Z,63.59
2022-09-26T10:27:35.018Z,62.64
2022-09-26T10:30:04.892Z,61.99
2022-09-26T10:32:31.228Z,62.63
2022-09-26T10:35:21.835Z,61.46
2022-09-26T10:37:58.405Z,62.53
2022-09-26T10:40:28.932Z,59.54
2022-09-26T10:43:18.250Z,61.30
2022-09-26T10:45:44.775Z,63.73
2022-09-26T10:48:12.649Z,62.67
2022-09-26T10:50:48.276Z,63.14
2022-09-26T10:53:15.034Z,64.22
2022-09-26T10:55:46.259Z,64.10
2022-09-26T10:58:22.206Z,62.71
2022-09-26T11:00:48.910Z,63.85
2022-09-26T11:03:20.209Z,62.25
2022-09-26T11:05:47.920Z,62.89
2022-09-26T11:08:14.436Z,61.92
2022-09-26T11:10:40.997Z,61.75
2022-09-26T11:13:17.944Z,60.38
2022-09-26T11:15:57.445Z,59.94
2022-09-26T11:18:41.937Z,60.09
2022-09-26T11:21:28.254Z,59.82
2022-09-26T11:24:14.405Z,59.67
2022-09-26T11:27:11.738Z,58.69
2022-09-26T11:30:14.430Z,58.08
2022-09-26T11:32:44.052Z,55.35
2022-09-26T11:35:16.651Z,55.19
2022-09-26T11:38:01.910Z,55.58
2022-09-26T11:40:46.953Z,55.04
2022-09-26T11:43:50.335Z,55.68
2022-09-26T11:46:49.832Z,54.89
2022-09-26T11:49:41.741Z,52.27
2022-09-26T11:52:23.373Z,54.10
2022-09-26T11:55:17.092Z,53.13
2022-09-26T11:57:59.134Z,50.88
2022-09-26T12:00:35.700Z,52.01
2022-09-26T12:03:29.136Z,53.11
2022-09-26T12:06:12.494Z,51.87
2022-09-26T12:09:09.672Z,49.71
2022-09-26T12:11:48.123Z,49.04
2022-09-26T12:14:33.279Z,48.63
2022-09-26T12:17:18.533Z,50.52
2022-09-26T12:19:54.361Z,50.61
2022-09-26T12:22:59.520Z,48.82
2022-09-26T12:25:47.650Z,49.03
2022-09-26T12:28:29.511Z,48.52
2022-09-26T12:31:05.179Z,49.06
2022-09-26T12:33:35.103Z,50.68
2022-09-26T12:36:16.801Z,49.00
2022-09-26T12:39:21.095Z,50.51
2022-09-26T12:41:56.762Z,50.81
2022-09-26T12:44:48.258Z,51.40
2022-09-26T12:47:33.342Z,52.34
2022-09-26T12:50:02.672Z,53.79
2022-09-26T12:52:44.121Z,51.93
2022-09-26T12:55:37.620Z,51.58
2022-09-26T12:58:19.339Z,51.00
2022-09-26T13:00:55.907Z,52.88
2022-09-26T13:03:34.293Z,51.80
2022-09-26T13:06:08.989Z,53.19
2022-09-26T13:09:14.007Z,50.59
2022-09-26T13:12:02.076Z,54.00
2022-09-26T13:14:47.438Z,53.44
2022-09-26T13:17:22.067Z,52.70
2022-09-26T13:19:51.621Z,55.02
2022-09-26T13:22:41.749Z,52.78
2022-09-26T13:25:11.291Z,51.92
2022-09-26T13:27:42.063Z,52.20
2022-09-26T13:30:19.096Z,51.32
2022-09-26T13:33:00.298Z,52.52
2022-09-26T13:35:29.891Z,52.20
2022-09-26T13:38:21.530Z,50.20
2022-09-26T13:41:29.285Z,51.19
2022-09-26T13:44:08.555Z,50.18
2022-09-26T13:46:57.103Z,47.39
2022-09-26T13:49:54.197Z,46.86
2022-09-26T13:52:35.927Z,46.91
2022-09-26T13:55:14.270Z,47.38
2022-09-26T13:58:19.786Z,46.07
2022-09-26T14:00:46.631Z,47.26
2022-09-26T14:03:13.173Z,47.46
2022-09-26T14:05:42.471Z,47.65
2022-09-26T14:08:24.262Z,47.54
2022-09-26T14:11:05.939Z,48.24
2022-09-26T14:13:36.803Z,49.47
2022-09-26T14:16:28.187Z,49.18
2022-09-26T14:18:58.399Z,49.10
2022-09-26T14:21:53.786Z,48.19
2022-09-26T14:24:20.145Z,48.89
2022-09-26T14:27:09.932Z,49.87
2022-09-26T14:29:39.192Z,50.24
2022-09-26T14:32:16.226Z,50.87
2022-09-26T14:34:46.070Z,50.00
2022-09-26T14:37:31.701Z,49.50
2022-09-26T14:40:10.395Z,49.06
2022-09-26T14:42:42.643Z,49.20
2022-09-26T14:45:21.907Z,48.29
2022-09-26T14:48:09.596Z,49.19
2022-09-26T14:50:50.342Z,49.08
2022-09-26T14:53:33.525Z,49.31
2022-09-26T14:56:07.322Z,49.38
2022-09-26T14:58:47.282Z,50.66
2022-09-26T15:01:16.532Z,49.77
2022-09-26T15:03:43.589Z,51.24
2022-09-26T15:06:12.321Z,49.17
2022-09-26T15:08:41.279Z,49.59
2022-09-26T15:11:47.655Z,48.90
2022-09-26T15:14:50.218Z,49.51
2022-09-26T15:17:20.240Z,50.94
2022-09-26T15:19:52.877Z,52.29
2022-09-26T15:22:21.245Z,51.37
2022-09-26T15:24:53.033Z,50.49
2022-09-26T15:27:24.996Z,51.35
2022-09-26T15:29:53.523Z,51.61
2022-09-26T15:32:27.170Z,52.51
2022-09-26T15:34:54.740Z,53.92
2022-09-26T15:37:27.180Z,52.70
2022-09-26T15:39:54.105Z,53.62
2022-09-26T15:42:28.906Z,53.53
2022-09-26T15:44:57.615Z,53.84
2022-09-26T15:47:30.564Z,53.75
2022-09-26T15:50:29.540Z,54.88
2022-09-26T15:53:00.016Z,54.20
2022-09-26T15:55:43.907Z,53.84
2022-09-26T15:58:15.088Z,53.96
2022-09-26T16:00:48.595Z,53.98
2022-09-26T16:03:27.493Z,54.25
2022-09-26T16:05:54.872Z,55.55
2022-09-26T16:08:24.580Z,55.33
2022-09-26T16:10:55.005Z,56.20
2022-09-26T16:13:24.161Z,56.36
2022-09-26T16:16:00.715Z,55.42
2022-09-26T16:18:27.374Z,55.87
2022-09-26T16:21:14.744Z,56.50
2022-09-26T16:23:50.311Z,57.01
2022-09-26T16:26:31.091Z,55.77
2022-09-26T16:28:58.782Z,55.75
2022-09-26T16:31:45.736Z,56.25
2022-09-26T16:34:20.805Z,57.76
2022-09-26T16:36:47.890Z,57.41
2022-09-26T16:39:26.337Z,57.36
2022-09-26T16:42:02.801Z,57.71
2022-09-26T16:44:35.829Z,58.09
2022-09-26T16:47:27.155Z,59.50
2022-09-26T16:49:53.860Z,59.32
2022-09-26T16:52:26.335Z,58.35
2022-09-26T16:54:57.534Z,59.55
2022-09-26T16:57:28.456Z,58.74
2022-09-26T16:59:58.398Z,59.51
2022-09-26T17:02:26.129Z,59.73
2022-09-26T17:04:53.760Z,59.49
2022-09-26T17:07:20.313Z,59.09
2022-09-26T17:09:46.775Z,60.17
2022-09-26T17:12:21.548Z,60.29
2022-09-26T17:14:50.367Z,60.35
2022-09-26T17:17:20.307Z,60.82
2022-09-26T17:19:48.283Z,60.61
2022-09-26T17:22:16.830Z,60.92
2022-09-26T17:24:47.271Z,59.98
2022-09-26T17:27:16.451Z,59.67
2022-09-26T17:29:45.183Z,60.48
2022-09-26T17:32:22.305Z,59.88
2022-09-26T17:34:48.788Z,60.17
2022-09-26T17:37:16.608Z,59.79
2022-09-26T17:39:43.087Z,59.89
2022-09-26T17:42:09.726Z,58.93
2022-09-26T17:44:36.220Z,59.31
2022-09-26T17:47:03.205Z,59.44
2022-09-26T17:49:36.073Z,59.44
2022-09-26T17:52:04.426Z,59.16
2022-09-26T17:54:33.335Z,58.94
2022-09-26T17:57:02.296Z,59.09
2022-09-26T17:59:29.080Z,59.48
2022-09-26T18:02:01.940Z,59.17
2022-09-26T18:04:28.984Z,59.54
2022-09-26T18:07:01.327Z,59.88
2022-09-26T18:09:32.653Z,58.85
2022-09-26T18:12:00.682Z,59.57
2022-09-26T18:14:29.555Z,59.43
2022-09-26T18:16:56.066Z,59.26
2022-09-26T18:19:22.658Z,58.75
2022-09-26T18:21:55.418Z,58.89
2022-09-26T18:24:27.142Z,58.45
2022-09-26T18:26:54.202Z,58.89
2022-09-26T18:29:34.670Z,60.67
2022-09-26T18:32:02.798Z,61.05
2022-09-26T18:34:29.362Z,61.02
2022-09-26T18:36:56.022Z,61.41
2022-09-26T18:39:23.672Z,61.93
2022-09-26T18:41:55.444Z,62.16
2022-09-26T18:44:22.533Z,64.20
2022-09-26T18:46:49.474Z,64.52
2022-09-26T18:49:16.264Z,64.61
2022-09-26T18:51:42.971Z,65.17
2022-09-26T18:54:12.720Z,65.85
2022-09-26T18:56:40.832Z,66.72
2022-09-26T18:59:07.459Z,66.19
2022-09-26T19:01:35.930Z,65.84
2022-09-26T19:04:07.622Z,67.13
2022-09-26T19:06:39.496Z,66.18
2022-09-26T19:09:07.942Z,66.46
2022-09-26T19:11:34.643Z,64.97
2022-09-26T19:14:14.050Z,64.27
2022-09-26T19:16:52.430Z,65.18
2022-09-26T19:19:19.730Z,66.39
2022-09-26T19:21:51.250Z,65.02
2022-09-26T19:24:23.427Z,64.97
2022-09-26T19:26:59.581Z,66.92
2022-09-26T19:29:55.462Z,67.83
2022-09-26T19:32:25.430Z,66.97
2022-09-26T19:34:57.363Z,69.43
2022-09-26T19:37:24.130Z,69.19
2022-09-26T19:39:50.743Z,70.24
2022-09-26T19:42:17.392Z,69.32
2022-09-26T19:44:47.337Z,69.62
2022-09-26T19:47:22.012Z,69.45
2022-09-26T19:49:52.508Z,70.76
2022-09-26T19:52:21.537Z,71.04
2022-09-26T19:54:48.480Z,71.81
2022-09-26T19:57:20.661Z,73.44
2022-09-26T19:59:47.796Z,75.03
2022-09-26T20:02:24.740Z,74.83
2022-09-26T20:04:51.750Z,76.07
2022-09-26T20:07:20.966Z,76.25
2022-09-26T20:09:47.616Z,77.68
2022-09-26T20:12:14.201Z,79.60
2022-09-26T20:14:42.018Z,80.11
2022-09-26T20:17:11.576Z,79.92
2022-09-26T20:19:40.193Z,79.40
2022-09-26T20:22:13.778Z,77.67
2022-09-26T20:24:40.496Z,77.38
2022-09-26T20:27:21.600Z,76.93
2022-09-26T20:29:49.205Z,77.95
2022-09-26T20:32:17.236Z,77.53
2022-09-26T20:34:43.852Z,77.36
2022-09-26T20:37:11.698Z,77.22
2022-09-26T20:39:39.129Z,77.68
2022-09-26T20:42:12.077Z,77.37
2022-09-26T20:44:41.718Z,76.66
2022-09-26T20:47:12.701Z,76.85
2022-09-26T20:49:55.309Z,77.46
2022-09-26T20:52:24.266Z,75.69
2022-09-26T20:54:51.195Z,75.39
2022-09-26T20:57:18.279Z,76.19
2022-09-26T20:59:44.814Z,75.05
2022-09-26T21:02:40.595Z,74.00
2022-09-26T21:05:19.047Z,75.20
2022-09-26T21:07:45.983Z,75.74
2022-09-26T21:10:30.003Z,75.87
2022-09-26T21:12:57.007Z,75.30
2022-09-26T21:15:25.312Z,75.39
2022-09-26T21:17:52.884Z,77.13
2022-09-26T21:20:24.415Z,78.38
2022-09-26T21:22:51.076Z,77.70
2022-09-26T21:25:20.180Z,78.90
2022-09-26T21:27:48.399Z,80.68
2022-09-26T21:30:18.916Z,81.63
2022-09-26T21:32:50.874Z,81.24
2022-09-26T21:35:18.665Z,81.42
2022-09-26T21:37:47.030Z,81.79
2022-09-26T21:40:13.627Z,78.81
2022-09-26T21:42:42.983Z,79.20
2022-09-26T21:45:10.804Z,80.04
2022-09-26T21:47:37.532Z,80.01
2022-09-26T21:50:06.826Z,80.50
2022-09-26T21:52:46.980Z,81.83
2022-09-26T21:55:17.421Z,82.62
2022-09-26T21:57:47.056Z,82.96
2022-09-26T22:00:14.161Z,83.63
2022-09-26T22:02:40.750Z,84.88
2022-09-26T22:05:08.622Z,84.79
2022-09-26T22:07:35.712Z,84.43
2022-09-26T22:10:02.546Z,86.63
2022-09-26T22:12:29.031Z,86.18
2022-09-26T22:14:55.742Z,85.33
2022-09-26T22:17:22.388Z,84.38
2022-09-26T22:19:51.664Z,83.84
2022-09-26T22:22:18.824Z,83.28
2022-09-26T22:24:45.629Z,83.97
2022-09-26T22:27:12.489Z,83.43
2022-09-26T22:29:38.937Z,83.83
2022-09-26T22:32:05.502Z,83.60
2022-09-26T22:34:32.014Z,83.36
2022-09-26T22:36:58.484Z,81.75
2022-09-26T22:39:25.078Z,83.05
2022-09-26T22:41:52.583Z,84.10
2022-09-26T22:44:20.438Z,84.45
2022-09-26T22:46:47.040Z,84.24
2022-09-26T22:49:13.635Z,86.52
2022-09-26T22:51:40.178Z,86.58
2022-09-26T22:54:06.801Z,87.06
2022-09-26T22:56:33.505Z,86.99
2022-09-26T22:59:00.010Z,88.42
2022-09-26T23:01:27.748Z,88.47
2022-09-26T23:03:54.873Z,86.64
2022-09-26T23:06:22.426Z,87.00
2022-09-26T23:08:48.953Z,87.77
2022-09-26T23:11:16.345Z,86.12
2022-09-26T23:13:42.875Z,85.12
2022-09-26T23:16:15.096Z,85.21
2022-09-26T23:18:42.198Z,84.34
2022-09-26T23:21:10.480Z,84.88
2022-09-26T23:23:39.278Z,84.13
2022-09-26T23:26:06.811Z,84.22
2022-09-26T23:28:33.733Z,84.35
2022-09-26T23:31:05.447Z,84.81
2022-09-26T23:33:32.032Z,84.00
2022-09-26T23:35:59.153Z,82.72
2022-09-26T23:38:26.957Z,82.67
2022-09-26T23:40:53.985Z,85.37
2022-09-26T23:43:20.542Z,85.88
2022-09-26T23:45:47.068Z,84.71
2022-09-26T23:48:13.689Z,86.24
2022-09-26T23:50:40.402Z,88.25
2022-09-26T23:53:06.986Z,88.50
2022-09-26T23:55:33.765Z,88.05
2022-09-26T23:58:00.214Z,88.99
